• Join FlightAware (Why Join?)
  • Login
  • US Flag GB Flag 
21:39 EDT


 

Airport Tracker/Info


-or-


 

Live Flight TrackerFlight Track Log ✈ SWA655 ✈ 12-Apr-2013 ✈ KLAS - KMCO

Flight Track Log - Related Links

Times and Time Zones

All times are in EDT time to prevent confusion due to time zone crossing. See the SWA655 flight status page for this flight to view local times or setup timezone preferences in your user account.

Time Position Orientation Groundspeed Altitude Reporting Facility
EDT Latitude Longitude Course Direction KTS MPH feet Rate Location/Type
20:56 36.0753 -115.1739 269° West 169 194 3,300  Level Los Angeles Center
20:56 36.0747 -115.2111 269° West 175 201 4,300 1,800 Climbing Los Angeles Center
20:57 36.0258 -115.2750 227° Southwest 259 298 6,500 1,860 Climbing Los Angeles Center
20:58 36.0139 -115.2803 200° South 244 281 6,900 540 Climbing Los Angeles Center
20:58 35.9572 -115.2975 194° South 280 322 7,000 360 Climbing Los Angeles Center
20:59 35.9383 -115.2881 158° South 269 310 7,300 2,580 Climbing Los Angeles Center
21:00 35.9031 -115.2133 120° Southeast 277 319 10,700 2,400 Climbing Los Angeles Center
21:01 35.9053 -115.1269 88° East 305 351 12,300 2,700 Climbing Los Angeles Center
21:02 35.9075 -114.9567 89° East 347 399 16,300 3,240 Climbing Los Angeles Center
21:03 35.9100 -114.8239 89° East 382 440 19,100 2,580 Climbing Los Angeles Center
21:04 35.9139 -114.6881 88° East 395 455 21,700 2,280 Climbing Los Angeles Center
21:05 35.9164 -114.5472 89° East 406 467 23,900 1,980 Climbing Los Angeles Center
21:06 35.9158 -114.4044 90° East 414 476 25,800 1,860 Climbing Los Angeles Center
21:07 35.9183 -114.2542 89° East 433 498 27,800 1,920 Climbing Los Angeles Center
21:08 35.9206 -114.0719 89° East 443 510 29,900 1,860 Climbing Los Angeles Center
21:09 35.9222 -113.9178 89° East 450 518 31,700 1,920 Climbing Los Angeles Center
21:10 35.9022 -113.7675 99° East 446 513 33,900 1,680 Climbing Los Angeles Center
21:11 35.8794 -113.6181 101° East 443 510 35,200 1,080 Climbing Los Angeles Center
21:12 35.8528 -113.4578 102° East 448 516 36,200 840 Climbing Los Angeles Center
21:13 35.8286 -113.3039 101° East 456 525 37,000 780 Climbing Los Angeles Center
21:14 35.8031 -113.1486 101° East 462 532 37,900 780 Climbing Los Angeles Center
21:15 35.7783 -112.9919 101° East 464 534 38,700 480 Climbing Los Angeles Center
21:16 35.7467 -112.8042 102° East 465 535 39,000 120 Climbing Los Angeles Center
21:17 35.7256 -112.6792 102° East 465 535 39,000  Level Los Angeles Center
21:18 35.6956 -112.4936 101° East 461 531 39,000  Level Los Angeles Center
21:19 35.6694 -112.3394 102° East 461 531 39,000  Level Los Angeles Center
21:20 35.6606 -112.1825 94° East 461 531 39,000  Level Los Angeles Center
21:21 35.6539 -112.0233 93° East 467 537 39,000  Level Los Angeles Center
21:22 35.6433 -111.8306 94° East 472 543 39,000  Level Los Angeles Center
21:24 35.6356 -111.6703 93° East 473 544 39,000  Level Los Angeles Center
21:24 35.6258 -111.5428 95° East 471 542 39,000  Level Albuquerque Center
21:25 35.6167 -111.3736 94° East 474 545 39,000  Level Albuquerque Center
21:26 35.6119 -111.2206 92° East 471 542 39,000  Level Albuquerque Center
21:27 35.5983 -111.0428 95° East 468 539 39,000  Level Albuquerque Center
21:28 35.5917 -110.8975 93° East 455 524 39,000  Level Albuquerque Center
21:29 35.5800 -110.7244 95° East 453 521 39,000  Level Albuquerque Center
21:30 35.5703 -110.5764 95° East 455 524 39,000  Level Albuquerque Center
21:32 35.5608 -110.4267 94° East 457 526 39,000  Level Albuquerque Center
21:33 35.5503 -110.2497 94° East 464 534 39,000  Level Albuquerque Center
21:34 35.5408 -110.0983 94° East 465 535 39,000  Level Albuquerque Center
21:35 35.5292 -109.9219 95° East 465 535 39,000  Level Albuquerque Center
21:36 35.5200 -109.7703 94° East 466 536 39,000  Level Albuquerque Center
21:37 35.5072 -109.5928 95° East 468 539 39,000  Level Albuquerque Center
21:38 35.4953 -109.4389 95° East 472 543 39,000  Level Albuquerque Center
21:39 35.4847 -109.2847 95° East 475 547 39,000  Level Albuquerque Center
21:40 35.4717 -109.1064 95° East 474 545 39,000  Level Albuquerque Center
21:41 35.4608 -108.9519 95° East 476 548 39,000  Level Albuquerque Center
21:42 35.4453 -108.7725 96° East 476 548 39,000  Level Albuquerque Center
21:43 35.4347 -108.6194 95° East 475 547 39,000  Level Albuquerque Center
21:44 35.4208 -108.4383 95° East 478 550 39,000  Level Albuquerque Center
21:45 35.4072 -108.2839 96° East 479 551 39,000  Level Albuquerque Center
21:46 35.3950 -108.1283 95° East 481 554 39,000  Level Albuquerque Center
21:47 35.3800 -107.9461 96° East 482 555 39,000  Level Albuquerque Center
21:48 35.3661 -107.7903 96° East 482 555 39,000  Level Albuquerque Center
21:49 35.3506 -107.6103 96° East 479 551 39,000  Level Albuquerque Center
21:50 35.3342 -107.4461 97° East 481 554 39,000  Level Albuquerque Center
21:51 35.3203 -107.2822 96° East 481 554 39,000  Level Albuquerque Center
21:52 35.3050 -107.1156 96° East 486 559 39,000  Level Albuquerque Center
21:53 35.2908 -106.9608 96° East 479 551 39,000  Level Albuquerque Center
21:54 35.2744 -106.7819 96° East 473 544 39,000  Level Albuquerque Center
21:55 35.2614 -106.6258 96° East 480 552 39,000  Level Albuquerque Center
21:56 35.2428 -106.4564 98° East 492 566 39,000  Level Albuquerque Center
21:57 35.2261 -106.2914 97° East 491 565 39,000  Level Albuquerque Center
21:58 35.2067 -106.1064 97° East 484 557 39,000  Level Albuquerque Center
21:59 35.1900 -105.9397 97° East 490 564 39,000  Level Albuquerque Center
22:00 35.1742 -105.7725 97° East 492 566 39,000  Level Albuquerque Center
22:01 35.1558 -105.6078 98° East 487 560 39,000  Level Albuquerque Center
22:02 35.1400 -105.4425 97° East 485 558 39,000  Level Albuquerque Center
22:03 35.1228 -105.2789 97° East 484 557 39,000  Level Albuquerque Center
22:04 35.1036 -105.1136 98° East 487 560 39,000  Level Albuquerque Center
22:05 35.0858 -104.9472 97° East 490 564 39,000  Level Albuquerque Center
22:06 35.0678 -104.7803 97° East 491 565 39,000  Level Albuquerque Center
22:07 35.0483 -104.6114 98° East 497 572 39,000  Level Albuquerque Center
22:08 35.0264 -104.4139 98° East 502 578 39,000  Level Albuquerque Center
22:09 35.0064 -104.2450 98° East 505 581 39,000  Level Albuquerque Center
22:10 34.9867 -104.0756 98° East 508 585 39,000  Level Albuquerque Center
22:11 34.9667 -103.9050 98° East 509 586 39,000  Level Albuquerque Center
22:12 34.9469 -103.7350 98° East 506 582 39,000  Level Albuquerque Center
22:13 34.9253 -103.5636 99° East 508 585 39,000  Level Albuquerque Center
22:14 34.9050 -103.3931 98° East 507 583 39,000  Level Albuquerque Center
22:16 34.8833 -103.2206 99° East 510 587 39,000  Level Albuquerque Center
22:17 34.8619 -103.0492 99° East 511 588 39,000  Level Albuquerque Center
22:18 34.8408 -102.8767 98° East 511 588 39,000  Level Albuquerque Center
22:19 34.8142 -102.6750 99° East 514 592 39,000  Level Albuquerque Center
22:20 34.7947 -102.5261 99° East 514 592 39,000  Level Albuquerque Center
22:21 34.7717 -102.3544 99° East 516 594 39,000  Level Albuquerque Center
22:22 34.7444 -102.1517 99° East 512 589 39,000  Level Albuquerque Center
22:23 34.7217 -101.9819 99° East 513 590 39,000  Level Albuquerque Center
22:24 34.6994 -101.8131 99° East 512 589 39,000  Level Albuquerque Center
22:25 34.6756 -101.6436 100° East 513 590 39,000  Level Albuquerque Center
22:26 34.6522 -101.4744 99° East 513 590 39,000  Level Albuquerque Center
22:27 34.6294 -101.3075 99° East 509 586 39,000  Level Albuquerque Center
22:28 34.6053 -101.1397 100° East 508 585 39,000  Level Albuquerque Center
22:29 34.5778 -100.9406 99° East 504 580 39,000  Level Albuquerque Center
22:30 34.5528 -100.7744 100° East 504 580 39,000  Level Albuquerque Center
22:31 34.5283 -100.6078 100° East 503 579 39,000  Level Albuquerque Center
22:32 34.5033 -100.4411 100° East 505 581 39,000  Level Albuquerque Center
22:33 34.4783 -100.2719 100° East 509 586 39,000  Level Albuquerque Center
22:34 34.4517 -100.0900 100° East 511 588 39,000  Level Albuquerque Center
22:34 34.4367 -99.9994 101° East 505 581 39,000  Level Fort Worth Center
22:35 34.4128 -99.8275 100° East 505 581 39,000  Level Fort Worth Center
22:36 34.3867 -99.6733 102° East 505 581 39,000  Level Fort Worth Center
22:37 34.3603 -99.5042 101° East 505 581 39,000  Level Fort Worth Center
22:38 34.3317 -99.3297 101° East 510 587 39,000  Level Fort Worth Center
22:39 34.3072 -99.1633 100° East 510 587 39,000  Level Fort Worth Center
22:40 34.2761 -98.9817 102° East 505 581 39,000  Level Fort Worth Center
22:41 34.2469 -98.8131 102° East 505 581 39,000  Level Fort Worth Center
22:42 34.2194 -98.6442 101° East 511 588 39,000  Level Fort Worth Center
22:43 34.1917 -98.4731 101° East 511 588 39,000  Level Fort Worth Center
22:44 34.1619 -98.2969 101° East 511 588 39,000  Level Fort Worth Center
22:45 34.1336 -98.1311 102° East 511 588 39,000  Level Fort Worth Center
22:46 34.1053 -97.9603 101° East 511 588 39,000  Level Fort Worth Center
22:47 34.0831 -97.8072 100° East 511 588 39,000  Level Fort Worth Center
22:48 34.0542 -97.6317 101° East 511 588 39,000  Level Fort Worth Center
22:49 34.0189 -97.4511 103° East 511 588 39,000  Level Fort Worth Center
22:50 33.9917 -97.2783 101° East 511 588 39,000  Level Fort Worth Center
22:51 33.9622 -97.1106 102° East 511 588 39,000  Level Fort Worth Center
22:52 33.9325 -96.9378 102° East 511 588 39,000  Level Fort Worth Center
22:53 33.9044 -96.7678 101° East 511 588 39,000  Level Fort Worth Center
22:54 33.8764 -96.6003 101° East 511 588 39,000  Level Fort Worth Center
22:55 33.8461 -96.4456 103° East 511 588 39,000  Level Fort Worth Center
22:56 33.8175 -96.2783 102° East 511 588 39,000  Level Fort Worth Center
22:57 33.7889 -96.1114 102° East 511 588 39,000  Level Fort Worth Center
22:58 33.7600 -95.9419 102° East 505 581 39,000  Level Fort Worth Center
22:59 33.7286 -95.7700 102° East 510 587 39,000  Level Fort Worth Center
23:00 33.6969 -95.6033 103° East 510 587 39,000  Level Fort Worth Center
23:01 33.6633 -95.4419 104° East 503 579 39,000  Level Fort Worth Center
23:02 33.6333 -95.2753 102° East 498 573 39,000  Level Fort Worth Center
23:03 33.6056 -95.1089 101° East 504 580 39,000  Level Fort Worth Center
23:04 33.5753 -94.9428 102° East 504 580 39,000  Level Fort Worth Center
23:05 33.5447 -94.7767 102° East 504 580 39,000  Level Fort Worth Center
23:06 33.5139 -94.6106 103° East 504 580 39,000  Level Fort Worth Center
23:07 33.4808 -94.4447 103° East 509 586 39,000  Level Fort Worth Center
23:08 33.4497 -94.2792 103° East 509 586 39,000  Level Fort Worth Center
23:09 33.4183 -94.1136 103° East 509 586 39,000  Level Fort Worth Center
23:10 33.3825 -93.9431 104° East 509 586 39,000  Level Fort Worth Center
23:11 33.3478 -93.7481 102° East 535 616 39,000  Level Fort Worth Center
23:12 33.3136 -93.5806 104° East 535 616 39,000 240 Level Fort Worth Center
23:13 33.2811 -93.4131 103° East 524 603 39,500 780 Climbing Fort Worth Center
23:14 33.2464 -93.2456 104° East 518 596 40,600 720 Climbing Fort Worth Center
23:15 33.2158 -93.0833 103° East 513 590 41,000 180 Climbing Fort Worth Center
23:16 33.1808 -92.9186 104° East 508 585 41,000  Level Fort Worth Center
23:17 33.1478 -92.7542 103° East 508 585 41,000  Level Fort Worth Center
23:18 33.1147 -92.5947 104° East 503 579 41,000  Level Fort Worth Center
23:19 33.0833 -92.4303 103° East 503 579 41,000  Level Fort Worth Center
23:20 33.0494 -92.2661 104° East 508 585 41,000  Level Fort Worth Center
23:22 32.9808 -91.9769 106° East 507 583 41,000  Level Memphis Center
23:23 32.9433 -91.8178 106° East 512 589 41,000  Level Memphis Center
23:24 32.9117 -91.6539 103° East 506 582 41,000  Level Memphis Center
23:25 32.8756 -91.4925 105° East 506 582 41,000  Level Memphis Center
23:26 32.8394 -91.3289 105° East 506 582 41,000  Level Memphis Center
23:27 32.8092 -91.1828 104° East 506 582 41,000  Level Memphis Center
23:28 32.7725 -91.0219 105° East 506 582 41,000  Level Memphis Center
23:29 32.7356 -90.8586 105° East 501 577 41,000  Level Memphis Center
23:30 32.7008 -90.7006 105° East 501 577 41,000  Level Memphis Center
23:31 32.6633 -90.5375 105° East 501 577 41,000  Level Memphis Center
23:32 32.6281 -90.3794 105° East 501 577 41,000  Level Memphis Center
23:33 32.5906 -90.2217 106° East 496 571 41,000  Level Memphis Center
23:34 32.5547 -90.0614 105° East 496 571 41,000  Level Memphis Center
23:35 32.5186 -89.9014 105° East 496 571 41,000  Level Memphis Center
23:36 32.4783 -89.7269 105° East 496 571 41,000  Level Memphis Center
23:37 32.4419 -89.5694 105° East 496 571 41,000  Level Memphis Center
23:38 32.4053 -89.4100 105° East 496 571 41,000  Level Memphis Center
23:39 32.3664 -89.2506 106° East 496 571 41,000  Level Memphis Center
23:40 32.3294 -89.0961 106° East 496 571 41,000  Level Memphis Center
23:41 32.2922 -88.9394 106° East 496 571 41,000  Level Memphis Center
23:42 32.2569 -88.7853 105° East 496 571 41,000  Level Memphis Center
23:44 32.1817 -88.4928 107° East 489 563 41,000  Level Atlanta Center
23:45 32.1456 -88.3364 105° East 489 563 41,000  Level Atlanta Center
23:46 32.1069 -88.1825 106° East 489 563 41,000  Level Atlanta Center
23:47 32.0706 -88.0239 105° East 489 563 41,000  Level Atlanta Center
23:48 32.0297 -87.8653 107° East 489 563 41,000  Level Atlanta Center
23:49 31.9906 -87.7069 106° East 489 563 41,000  Level Atlanta Center
23:50 31.9531 -87.5661 107° East 495 570 41,000  Level Atlanta Center
23:51 31.9119 -87.3956 106° East 495 570 41,000  Level Atlanta Center
23:52 31.8717 -87.2522 108° East 505 581 41,000  Level Atlanta Center
23:53 31.8319 -87.0969 107° East 505 581 41,000  Level Atlanta Center
23:55 31.7572 -86.8139 107° East 509 586 41,000  Level Jacksonville Center
23:56 31.7161 -86.6583 107° East 504 580 41,000  Level Jacksonville Center
23:57 31.6744 -86.5053 108° East 504 580 41,000  Level Jacksonville Center
23:58 31.6369 -86.3600 107° East 485 558 41,000  Level Jacksonville Center
23:59 31.5989 -86.2169 107° East 469 540 41,000  Level Jacksonville Center
00:00 31.5608 -86.0719 107° East 469 540 41,000  Level Jacksonville Center
00:01 31.5164 -85.9314 110° East 469 540 41,000  Level Jacksonville Center
00:02 31.4397 -85.8122 127° Southeast 455 524 41,000  Level Jacksonville Center
00:03 31.3633 -85.6881 126° Southeast 460 529 41,000  Level Jacksonville Center
00:04 31.2928 -85.5644 124° Southeast 460 529 41,000  Level Jacksonville Center
00:05 31.2158 -85.4481 128° Southeast 454 522 41,000  Level Jacksonville Center
00:06 31.1389 -85.3269 127° Southeast 454 522 41,000  Level Jacksonville Center
00:07 31.0597 -85.2036 127° Southeast 465 535 41,000  Level Jacksonville Center
00:08 30.9825 -85.0831 127° Southeast 465 535 41,000  Level Jacksonville Center
00:09 30.8992 -84.9528 127° Southeast 465 535 41,000  Level Jacksonville Center
00:10 30.8217 -84.8328 127° Southeast 465 535 41,000  Level Jacksonville Center
00:11 30.7419 -84.7125 128° Southeast 465 535 41,000  Level Jacksonville Center
00:12 30.6644 -84.5881 126° Southeast 465 535 41,000  Level Jacksonville Center
00:13 30.5928 -84.4806 128° Southeast 465 535 41,000  Level Jacksonville Center
00:14 30.5086 -84.3514 127° Southeast 465 535 41,000  Level Jacksonville Center
00:15 30.4308 -84.2297 127° Southeast 465 535 41,000  Level Jacksonville Center
00:16 30.3547 -84.1131 127° Southeast 465 535 41,000  Level Jacksonville Center
00:17 30.2764 -83.9942 127° Southeast 465 535 41,000  Level Jacksonville Center
00:18 30.1981 -83.8731 127° Southeast 465 535 41,000  Level Jacksonville Center
00:19 30.1175 -83.7547 128° Southeast 465 535 41,000  Level Jacksonville Center
00:20 30.0367 -83.6339 128° Southeast 465 535 41,000  Level Jacksonville Center
00:21 29.9561 -83.5136 128° Southeast 470 541 41,000 -360 Level Jacksonville Center
00:22 29.8772 -83.3933 127° Southeast 470 541 40,300 -900 Descending Jacksonville Center
00:23 29.8003 -83.2828 129° Southeast 465 535 39,300 -900 Descending Jacksonville Center
00:24 29.7317 -83.1794 127° Southeast 459 528 38,500 -900 Descending Jacksonville Center
00:25 29.6589 -83.0669 127° Southeast 454 522 37,500 -960 Descending Jacksonville Center
00:26 29.5797 -82.9522 128° Southeast 454 522 36,600 -1,980 Descending Jacksonville Center
00:27 29.5003 -82.8353 128° Southeast 454 522 33,600 -3,480 Descending Jacksonville Center
00:28 29.4147 -82.7067 127° Southeast 460 529 29,700 -3,660 Descending Jacksonville Center
00:29 29.3308 -82.5853 128° Southeast 465 535 26,300 -3,300 Descending Jacksonville Center
00:30 29.2492 -82.4667 128° Southeast 471 542 23,200 -3,120 Descending Jacksonville Center
00:31 29.1694 -82.3503 128° Southeast 471 542 20,200 -3,000 Descending Jacksonville Center
00:32 29.0936 -82.2392 128° Southeast 457 526 17,300 -2,940 Descending Jacksonville Center
00:33 29.0200 -82.1328 128° Southeast 445 512 14,400 -2,760 Descending Jacksonville Center
00:34 28.9525 -82.0358 128° Southeast 414 476 11,800 -1,680 Descending Jacksonville Center
00:35 28.8978 -81.9533 127° Southeast 390 449 11,100 -420 Descending Jacksonville Center
00:36 28.8492 -81.8733 125° Southeast 345 397 11,000 -120 Descending Jacksonville Center
00:36 28.8167 -81.8167 123° Southeast 303 349 11,000 -720 Level Orlando TRACON
00:38 28.7833 -81.7333 115° Southeast 314 361 9,900 -1,200 Descending Orlando TRACON
00:39 28.7667 -81.6333 101° East 303 349 8,600 -1,440 Descending Orlando TRACON
00:40 28.7500 -81.5500 103° East 294 338 7,100 -1,380 Descending Orlando TRACON
00:40 28.7333 -81.4667 103° East 289 333 6,000 -660 Descending Orlando TRACON
00:41 28.7167 -81.3833 103° East 258 297 5,900 -960 Descending Orlando TRACON
00:42 28.6833 -81.3167 120° Southeast 245 282 4,100 -1,440 Descending Orlando TRACON
00:44 28.6167 -81.3000 168° South 246 283 3,000 -780 Descending Orlando TRACON
00:45 28.5667 -81.3000 180° South 181 208 2,500 -720 Descending Orlando TRACON
00:45 28.5167 -81.3000 180° South 176 203 1,700 -900 Descending Orlando TRACON
00:46 28.4833 -81.3000 180° South 127 146 900 -840 Descending Orlando TRACON
00:48 28.4294 -81.3090 180° South  Level Estimated
00:55 28.4294 -81.3090 180° South  Level Estimated
00:56 28.4294 -81.3090 180° South  Level Estimated
00:57 28.4294 -81.3090 180° South  Level Estimated
00:58 28.4294 -81.3090 180° South  Level Estimated
00:59 28.4294 -81.3090 180° South  Level Estimated